Time;durP1;ratioP1;P1;durP2;ratioP2;P2;SDS_P1;SDS_P2;PMS_P1;PMS_P2;Temp;Humidity;BMP_temperature;BMP_pressure;BME280_temperature;BME280_humidity;BME280_pressure;Samples;Min_cycle;Max_cycle;Signal;HPM_P1;HPM_P2
2022/08/09 00:01:23;;;;;;;320.63;7.63;;;10.60;99.90;;;;;;5052027;28;20077;-27
2022/08/09 00:03:49;;;;;;;258.33;6.00;;;10.50;99.90;;;;;;5052318;28;20045;-27
2022/08/09 00:06:14;;;;;;;201.75;4.88;;;10.50;99.90;;;;;;5052594;28;20118;-27
2022/08/09 00:08:40;;;;;;;46.40;1.70;;;10.50;99.90;;;;;;5052385;28;20041;-28
2022/08/09 00:11:06;;;;;;;74.00;2.88;;;10.50;99.90;;;;;;5051885;28;20126;-28
2022/08/09 00:13:32;;;;;;;48.33;1.60;;;10.50;1.00;;;;;;5051377;28;20048;-28
2022/08/09 00:15:57;;;;;;;153.63;4.00;;;10.40;1.00;;;;;;5052630;28;20079;-28
2022/08/09 00:18:23;;;;;;;164.45;4.00;;;10.40;1.00;;;;;;5053165;28;20053;-27
2022/08/09 00:20:49;;;;;;;112.10;2.65;;;10.40;1.00;;;;;;5035231;28;20128;-28
2022/08/09 00:23:14;;;;;;;2.72;0.88;;;10.30;1.00;;;;;;5050040;28;20044;-27
2022/08/09 00:25:40;;;;;;;49.13;1.90;;;10.20;1.00;;;;;;5052846;28;20045;-27
2022/08/09 00:28:06;;;;;;;50.38;1.80;;;10.30;1.00;;;;;;5053783;28;20085;-27
2022/08/09 00:30:32;;;;;;;25.35;1.27;;;10.30;1.00;;;;;;5052247;28;20079;-27
2022/08/09 00:32:59;;;;;;;22.25;1.00;;;10.20;1.00;;;;;;5052805;28;20479;-28
2022/08/09 00:35:25;;;;;;;40.42;1.40;;;10.20;1.00;;;;;;5033669;28;20064;-27
2022/08/09 00:37:50;;;;;;;41.92;1.30;;;10.10;1.00;;;;;;5051560;28;20486;-27
2022/08/09 00:40:16;;;;;;;82.65;2.38;;;10.00;1.00;;;;;;5053038;28;20053;-27
2022/08/09 00:42:42;;;;;;;252.82;5.60;;;10.10;1.00;;;;;;5051089;28;20080;-28
2022/08/09 00:45:08;;;;;;;188.57;4.35;;;9.90;1.00;;;;;;5052129;28;20048;-27
2022/08/09 00:47:34;;;;;;;206.50;4.68;;;9.80;1.00;;;;;;5051806;28;20052;-27
2022/08/09 00:50:00;;;;;;;234.60;5.25;;;9.80;1.00;;;;;;5052746;28;20395;-27
2022/08/09 00:52:26;;;;;;;159.80;3.75;;;9.80;1.00;;;;;;5052707;28;20045;-27
2022/08/09 00:54:52;;;;;;;5.15;1.50;;;9.80;1.00;;;;;;5051703;28;20447;-27
2022/08/09 00:57:19;;;;;;;2.28;1.30;;;9.80;1.00;;;;;;5053986;28;20041;-27
2022/08/09 00:59:45;;;;;;;2.75;1.20;;;9.80;1.00;;;;;;5053707;28;20434;-27
2022/08/09 01:02:13;;;;;;;3.22;1.35;;;9.70;1.00;;;;;;5051508;28;20049;-28
2022/08/09 01:04:44;;;;;;;7.75;0.63;;;9.80;1.00;;;;;;5053841;28;20052;-28
2022/08/09 01:07:32;;;;;;;37.15;1.02;;;9.80;1.00;;;;;;5050142;28;20514;-28
2022/08/09 01:10:27;;;;;;;47.75;1.88;;;9.80;39.70;;;;;;5052260;28;20499;-27
2022/08/09 01:13:10;;;;;;;31.92;1.30;;;9.80;41.40;;;;;;5031567;28;20499;-27
2022/08/09 01:15:41;;;;;;;105.45;2.13;;;9.80;44.90;;;;;;5051215;28;20053;-27
2022/08/09 01:18:11;;;;;;;112.85;2.97;;;9.70;31.40;;;;;;5051537;28;20044;-27
2022/08/09 01:20:46;;;;;;;37.50;1.45;;;9.70;14.30;;;;;;5051757;28;20041;-27
2022/08/09 01:23:30;;;;;;;186.60;4.03;;;9.60;1.00;;;;;;5053144;28;20044;-28
2022/08/09 01:26:24;;;;;;;206.85;4.57;;;9.50;1.00;;;;;;5051141;28;20484;-29
2022/08/09 01:28:52;;;;;;;143.27;3.72;;;9.40;1.00;;;;;;5050510;28;20063;-28
2022/08/09 01:31:21;;;;;;;90.80;2.25;;;9.40;1.00;;;;;;5051012;28;20053;-27
2022/08/09 01:33:48;;;;;;;198.05;4.15;;;9.40;1.00;;;;;;5053072;28;20076;-27
2022/08/09 01:36:19;;;;;;;101.20;2.50;;;9.40;1.00;;;;;;5053057;28;20045;-27
2022/08/09 01:38:48;;;;;;;243.02;5.60;;;9.40;1.00;;;;;;5052007;28;20052;-27
2022/08/09 01:41:27;;;;;;;247.63;5.88;;;9.40;1.00;;;;;;5067638;28;20049;-27
2022/08/09 01:44:01;;;;;;;165.02;4.05;;;9.30;1.30;;;;;;5052570;28;20490;-29
2022/08/09 01:46:33;;;;;;;126.63;3.47;;;9.30;34.40;;;;;;5052210;28;20488;-28
2022/08/09 01:49:15;;;;;;;143.23;4.27;;;9.30;39.30;;;;;;5055524;28;20053;-28
2022/08/09 01:51:47;;;;;;;39.33;3.00;;;9.30;58.50;;;;;;5054924;28;20299;-28
2022/08/09 01:54:14;;;;;;;15.57;2.25;;;9.30;70.50;;;;;;5054002;28;20187;-28
2022/08/09 01:56:44;;;;;;;85.40;3.78;;;9.40;73.10;;;;;;5055776;28;20048;-28
2022/08/09 01:59:12;;;;;;;86.75;3.13;;;9.40;86.40;;;;;;5054688;28;20049;-27
2022/08/09 02:01:40;;;;;;;141.18;4.93;;;9.40;92.90;;;;;;5055452;28;20052;-27
2022/08/09 02:04:08;;;;;;;43.15;2.58;;;9.50;99.90;;;;;;5053518;28;20041;-28
2022/08/09 02:09:22;;;;;;;30.42;1.67;;;9.50;81.10;;;;;;5055765;28;20049;-28
2022/08/09 02:11:48;;;;;;;15.95;1.10;;;9.50;43.90;;;;;;5054145;28;20071;-27
2022/08/09 02:14:18;;;;;;;25.77;1.05;;;9.40;21.60;;;;;;5055253;28;20045;-27
2022/08/09 02:16:45;;;;;;;3.05;0.95;;;9.40;1.00;;;;;;5054742;28;20111;-28
2022/08/09 02:19:11;;;;;;;4.50;1.15;;;9.40;5.40;;;;;;5052946;28;20051;-29
2022/08/09 02:21:42;;;;;;;4.40;1.40;;;9.40;41.20;;;;;;5054286;28;20049;-28
2022/08/09 02:24:13;;;;;;;4.68;1.20;;;9.40;47.50;;;;;;5055376;28;20041;-28
2022/08/09 02:26:40;;;;;;;3.85;1.55;;;9.40;71.20;;;;;;5054953;28;20056;-28
2022/08/09 02:29:17;;;;;;;0.95;0.30;;;9.40;74.50;;;;;;5055198;28;20059;-29
2022/08/09 02:31:46;;;;;;;0.30;0.20;;;9.40;64.30;;;;;;5054370;28;20402;-29
2022/08/09 02:34:16;;;;;;;2.47;0.30;;;9.30;30.40;;;;;;5055707;28;20136;-28
2022/08/09 02:36:45;;;;;;;0.40;0.17;;;9.30;19.00;;;;;;5055781;28;20095;-28
2022/08/09 02:39:17;;;;;;;1.10;0.20;;;9.20;1.00;;;;;;5054791;28;20060;-28
2022/08/09 02:41:46;;;;;;;0.20;0.10;;;9.30;1.00;;;;;;5053886;28;20045;-28
2022/08/09 02:44:19;;;;;;;0.10;0.00;;;9.20;1.00;;;;;;5054209;28;20064;-29
2022/08/09 02:46:48;;;;;;;2.40;0.10;;;9.20;9.20;;;;;;5054279;28;20495;-30
2022/08/09 02:49:16;;;;;;;0.52;0.22;;;9.20;33.10;;;;;;5055313;28;20055;-29
2022/08/09 02:51:43;;;;;;;3.90;0.60;;;9.20;46.80;;;;;;5052752;28;20045;-29
2022/08/09 02:54:14;;;;;;;3.67;0.70;;;9.10;59.20;;;;;;5053754;28;20036;-29
2022/08/09 02:56:42;;;;;;;2.28;0.93;;;9.10;59.70;;;;;;5055711;28;20099;-30
2022/08/09 02:59:10;;;;;;;2.30;0.90;;;9.00;60.40;;;;;;5052639;28;20453;-30
2022/08/09 03:01:37;;;;;;;1.48;0.63;;;9.10;61.70;;;;;;5054573;28;20423;-30
2022/08/09 03:04:04;;;;;;;1.65;0.88;;;9.00;62.90;;;;;;5054121;28;20120;-32
2022/08/09 03:06:32;;;;;;;4.07;0.80;;;9.00;53.10;;;;;;5054511;28;20049;-31
2022/08/09 03:08:59;;;;;;;1.70;0.90;;;9.00;52.70;;;;;;5055412;28;20110;-31
2022/08/09 03:11:26;;;;;;;2.67;1.20;;;8.90;65.10;;;;;;5054672;28;20115;-31
2022/08/09 03:13:53;;;;;;;131.63;3.58;;;9.00;88.90;;;;;;5053123;28;20120;-31
2022/08/09 03:16:20;;;;;;;117.70;2.63;;;8.90;92.50;;;;;;5053587;28;20124;-32
2022/08/09 03:18:47;;;;;;;73.20;2.00;;;8.90;86.80;;;;;;5051275;28;20128;-31
2022/08/09 03:21:18;;;;;;;55.60;1.90;;;8.90;70.90;;;;;;5054149;28;20406;-31
2022/08/09 03:23:47;;;;;;;55.53;1.85;;;8.80;40.00;;;;;;5053922;28;20403;-32
2022/08/09 03:26:18;;;;;;;76.47;2.47;;;8.80;37.90;;;;;;5052557;28;20076;-31
2022/08/09 03:28:46;;;;;;;91.65;2.42;;;8.80;39.60;;;;;;5052358;28;20045;-32
2022/08/09 03:31:13;;;;;;;19.77;0.70;;;8.80;32.50;;;;;;5053576;28;20041;-32
2022/08/09 03:33:40;;;;;;;2.92;0.52;;;8.70;27.60;;;;;;5053460;28;20045;-31
2022/08/09 03:36:09;;;;;;;43.85;1.65;;;8.60;27.90;;;;;;5053469;28;20396;-31
2022/08/09 03:38:40;;;;;;;67.28;2.15;;;8.60;16.20;;;;;;5053407;28;20523;-32
2022/08/09 03:41:06;;;;;;;46.13;1.85;;;8.60;21.40;;;;;;5055327;28;20110;-32
2022/08/09 03:43:31;;;;;;;52.13;1.90;;;8.50;24.50;;;;;;5053915;28;20483;-33
2022/08/09 03:45:57;;;;;;;41.28;1.70;;;8.50;26.10;;;;;;5050849;28;20045;-33
2022/08/09 03:48:24;;;;;;;61.65;2.22;;;8.50;25.70;;;;;;5053667;28;20049;-33
2022/08/09 03:50:53;;;;;;;53.30;1.90;;;8.50;29.50;;;;;;5054921;28;20041;-32
2022/08/09 03:53:19;;;;;;;82.07;3.38;;;8.50;41.80;;;;;;5053186;28;20111;-32
2022/08/09 03:55:46;;;;;;;97.28;3.50;;;8.50;93.10;;;;;;5051264;28;20056;-32
2022/08/09 03:58:13;;;;;;;137.15;4.25;;;8.60;99.90;;;;;;5053547;28;20041;-31
2022/08/09 04:00:40;;;;;;;155.70;4.60;;;8.50;99.90;;;;;;5053462;28;20126;-32
2022/08/09 04:03:07;;;;;;;102.50;3.67;;;8.60;99.90;;;;;;5052926;28;20430;-33
2022/08/09 04:05:33;;;;;;;129.43;4.38;;;8.60;99.90;;;;;;5052948;28;20131;-32
2022/08/09 04:07:58;;;;;;;143.52;4.72;;;8.50;99.90;;;;;;5053013;28;20049;-32
2022/08/09 04:10:25;;;;;;;60.40;2.50;;;8.60;99.90;;;;;;5054440;28;20123;-33
2022/08/09 04:12:52;;;;;;;38.42;2.03;;;8.60;99.90;;;;;;5052834;28;20048;-33
2022/08/09 04:15:21;;;;;;;103.22;4.07;;;8.60;99.90;;;;;;5052277;28;20073;-32
2022/08/09 04:17:47;;;;;;;83.93;3.35;;;8.70;99.90;;;;;;5052071;28;20052;-33
2022/08/09 04:20:14;;;;;;;44.97;2.25;;;8.60;99.90;;;;;;5053854;28;20051;-33
2022/08/09 04:22:41;;;;;;;118.40;3.80;;;8.80;99.90;;;;;;5053189;28;20037;-33
2022/08/09 04:25:07;;;;;;;159.15;4.45;;;8.70;99.90;;;;;;5053797;28;20135;-33
2022/08/09 04:27:34;;;;;;;126.40;3.95;;;8.70;99.90;;;;;;5050867;28;20068;-33
2022/08/09 04:30:00;;;;;;;126.55;4.68;;;8.80;99.90;;;;;;5051184;28;20041;-33
2022/08/09 04:32:27;;;;;;;126.93;4.97;;;8.80;99.90;;;;;;5035411;28;20548;-33
2022/08/09 04:34:53;;;;;;;252.77;7.03;;;8.80;99.90;;;;;;5053955;28;20060;-33
2022/08/09 04:37:19;;;;;;;268.27;8.05;;;9.00;99.90;;;;;;5053584;28;20127;-33
2022/08/09 04:39:45;;;;;;;165.93;5.25;;;8.90;99.90;;;;;;5050930;28;20116;-34
2022/08/09 04:42:11;;;;;;;201.60;6.72;;;8.90;99.90;;;;;;5052913;28;20461;-32
2022/08/09 04:44:37;;;;;;;172.30;5.97;;;8.90;99.90;;;;;;5053607;28;20049;-33
2022/08/09 04:47:03;;;;;;;186.65;6.40;;;9.10;99.90;;;;;;5052353;28;20041;-33
2022/08/09 04:49:35;;;;;;;207.07;6.32;;;9.10;99.90;;;;;;5052393;28;20084;-34
2022/08/09 04:52:03;;;;;;;91.60;5.60;;;9.20;99.90;;;;;;5053484;28;20052;-33
2022/08/09 04:54:29;;;;;;;169.13;6.22;;;9.30;99.90;;;;;;5052825;28;20437;-34
2022/08/09 04:56:55;;;;;;;293.92;9.00;;;9.30;99.90;;;;;;5051452;28;20590;-34
2022/08/09 04:59:20;;;;;;;254.40;7.10;;;9.40;99.90;;;;;;5052874;28;20132;-38
2022/08/09 05:01:46;;;;;;;187.98;7.85;;;9.40;99.90;;;;;;5048973;28;20053;-34
2022/08/09 05:04:12;;;;;;;24.48;3.83;;;9.50;99.90;;;;;;5052723;28;20048;-34
2022/08/09 05:06:37;;;;;;;20.65;4.20;;;9.70;99.90;;;;;;5053069;28;20434;-34
2022/08/09 05:09:03;;;;;;;14.90;4.88;;;9.70;99.90;;;;;;5051643;28;20045;-36
2022/08/09 05:11:30;;;;;;;33.42;5.65;;;10.00;99.90;;;;;;5052159;28;20044;-37
2022/08/09 05:13:55;;;;;;;48.97;5.30;;;10.20;99.90;;;;;;5051853;28;20091;-38
2022/08/09 05:16:21;;;;;;;25.40;4.90;;;10.20;99.90;;;;;;5052963;28;20052;-36
2022/08/09 05:18:47;;;;;;;17.92;4.13;;;10.40;99.90;;;;;;5050874;28;20162;-38
2022/08/09 05:21:14;;;;;;;9.98;3.67;;;10.50;99.90;;;;;;5051524;28;20502;-37
2022/08/09 05:23:39;;;;;;;6.47;2.35;;;10.50;99.90;;;;;;5054230;28;20092;-37
2022/08/09 05:26:05;;;;;;;7.28;3.10;;;10.70;99.90;;;;;;5054208;28;20439;-34
2022/08/09 05:28:31;;;;;;;10.95;3.78;;;10.80;99.90;;;;;;5047376;28;20044;-36
2022/08/09 05:30:57;;;;;;;13.82;4.50;;;10.90;99.90;;;;;;5055895;28;20045;-35
2022/08/09 05:33:22;;;;;;;17.23;5.00;;;11.20;99.90;;;;;;5054713;28;20041;-34
2022/08/09 05:35:48;;;;;;;12.45;4.30;;;11.20;99.90;;;;;;5056169;28;20045;-34
2022/08/09 05:38:14;;;;;;;15.88;5.40;;;11.50;99.90;;;;;;5057145;28;20087;-35
2022/08/09 05:40:40;;;;;;;14.70;5.75;;;11.60;99.90;;;;;;5057373;28;20463;-37
2022/08/09 05:43:06;;;;;;;11.98;5.05;;;11.80;99.90;;;;;;5055325;28;20053;-38
2022/08/09 05:45:32;;;;;;;17.63;5.28;;;11.90;99.90;;;;;;5055635;28;20529;-38
2022/08/09 05:47:58;;;;;;;19.25;6.25;;;12.10;99.90;;;;;;5055884;28;21584;-39
2022/08/09 05:50:27;;;;;;;16.15;6.38;;;12.50;99.90;;;;;;5055799;28;20041;-35
2022/08/09 05:52:53;;;;;;;15.02;6.97;;;12.60;99.90;;;;;;5055469;28;20045;-35
2022/08/09 05:55:19;;;;;;;17.38;6.10;;;13.00;99.90;;;;;;5054240;28;20057;-35
2022/08/09 05:57:45;;;;;;;13.80;6.85;;;13.20;99.90;;;;;;5056240;28;20047;-34
2022/08/09 06:00:12;;;;;;;15.25;7.88;;;13.60;99.90;;;;;;5055999;28;20402;-34
2022/08/09 06:02:38;;;;;;;15.73;7.47;;;14.00;99.90;;;;;;5055378;28;20483;-34
2022/08/09 06:05:05;;;;;;;20.92;9.25;;;14.30;99.90;;;;;;5055679;28;20110;-34
2022/08/09 06:07:31;;;;;;;20.80;9.00;;;14.30;99.90;;;;;;5055408;28;20514;-33
2022/08/09 06:09:57;;;;;;;19.50;9.90;;;14.40;99.90;;;;;;5056310;28;20111;-33
2022/08/09 06:12:22;;;;;;;19.92;10.82;;;14.90;99.90;;;;;;5055032;28;20044;-33
2022/08/09 06:14:48;;;;;;;17.20;10.32;;;14.90;99.90;;;;;;5056200;28;20040;-33
2022/08/09 06:17:14;;;;;;;15.88;10.38;;;15.10;99.90;;;;;;5053922;28;20057;-33
2022/08/09 06:19:40;;;;;;;17.48;10.63;;;15.20;99.90;;;;;;5055119;28;20107;-33
2022/08/09 06:22:06;;;;;;;19.48;11.20;;;15.30;99.90;;;;;;5053983;28;20060;-32
2022/08/09 06:24:31;;;;;;;17.00;11.52;;;15.90;99.90;;;;;;5056273;28;20056;-32
2022/08/09 06:26:57;;;;;;;20.60;10.95;;;15.60;99.90;;;;;;5053451;28;20045;-33
2022/08/09 06:29:23;;;;;;;16.02;9.70;;;15.70;99.90;;;;;;5069553;28;20093;-31
2022/08/09 06:31:49;;;;;;;11.55;9.05;;;16.20;99.90;;;;;;5054746;28;20053;-31
2022/08/09 06:34:15;;;;;;;12.02;8.02;;;16.30;99.90;;;;;;5051676;28;20118;-33
2022/08/09 06:36:40;;;;;;;10.70;6.25;;;16.40;99.90;;;;;;5049773;28;20041;-31
2022/08/09 06:39:10;;;;;;;10.98;6.75;;;16.50;99.90;;;;;;5024564;28;20049;-31
2022/08/09 06:41:36;;;;;;;7.28;4.95;;;16.40;99.90;;;;;;5045233;28;20494;-31
2022/08/09 06:44:02;;;;;;;10.18;4.88;;;16.50;99.90;;;;;;5035757;28;20045;-30
2022/08/09 06:46:28;;;;;;;10.15;4.55;;;16.80;99.90;;;;;;5035654;28;20075;-30
2022/08/09 06:48:53;;;;;;;7.63;3.80;;;16.90;99.90;;;;;;5035637;28;20099;-30
2022/08/09 06:51:19;;;;;;;6.93;3.63;;;16.90;99.90;;;;;;5035558;28;20119;-30
2022/08/09 06:53:45;;;;;;;9.65;4.57;;;17.10;99.90;;;;;;5048772;28;20068;-30
2022/08/09 06:56:10;;;;;;;5.90;3.90;;;17.20;99.90;;;;;;5055430;28;20083;-29
2022/08/09 06:58:37;;;;;;;6.80;3.92;;;17.30;99.90;;;;;;5054756;28;20478;-29
2022/08/09 07:01:03;;;;;;;6.00;3.45;;;17.50;99.90;;;;;;5054647;28;20103;-29
2022/08/09 07:03:29;;;;;;;7.10;3.90;;;17.50;99.90;;;;;;5055349;28;20041;-28
2022/08/09 07:05:57;;;;;;;5.03;3.40;;;17.60;99.90;;;;;;5055212;28;20059;-30
2022/08/09 07:08:22;;;;;;;7.63;4.40;;;17.70;99.90;;;;;;5055199;28;20123;-29
2022/08/09 07:10:48;;;;;;;4.97;3.58;;;17.80;99.90;;;;;;5054193;28;20479;-30
2022/08/09 07:13:14;;;;;;;6.10;3.42;;;17.90;99.90;;;;;;5054978;28;20045;-29
2022/08/09 07:15:39;;;;;;;4.40;3.20;;;18.00;99.90;;;;;;5055160;28;20068;-28
2022/08/09 07:18:05;;;;;;;5.55;3.20;;;18.10;99.90;;;;;;5036687;28;20172;-29
2022/08/09 07:20:31;;;;;;;6.97;3.13;;;18.10;99.90;;;;;;5053998;28;20045;-28
2022/08/09 07:22:57;;;;;;;5.50;2.90;;;18.20;5.70;;;;;;5054858;28;20068;-28
2022/08/09 07:25:22;;;;;;;4.22;2.45;;;18.30;99.90;;;;;;5055975;28;20123;-28
2022/08/09 07:27:48;;;;;;;3.53;2.75;;;18.30;99.90;;;;;;5053673;28;20394;-29
2022/08/09 07:30:14;;;;;;;6.72;2.78;;;18.40;14.80;;;;;;5053139;28;20055;-29
2022/08/09 07:32:40;;;;;;;7.10;2.92;;;18.50;1.00;;;;;;5055440;28;20049;-29
2022/08/09 07:35:09;;;;;;;4.05;2.33;;;18.50;99.90;;;;;;5053460;28;20502;-29
2022/08/09 07:37:35;;;;;;;4.07;2.10;;;18.60;99.90;;;;;;5054629;28;20060;-29
2022/08/09 07:40:01;;;;;;;9.32;2.22;;;18.70;8.60;;;;;;5053575;28;20041;-29
2022/08/09 07:42:27;;;;;;;4.50;1.90;;;18.90;1.00;;;;;;5053612;28;20037;-28
2022/08/09 07:44:53;;;;;;;4.03;2.10;;;19.10;1.00;;;;;;5053073;28;20136;-29
2022/08/09 07:47:19;;;;;;;6.38;1.70;;;19.20;99.90;;;;;;5053244;28;20478;-29
2022/08/09 07:49:44;;;;;;;4.85;1.45;;;19.20;99.90;;;;;;5053206;28;20095;-29
2022/08/09 07:52:10;;;;;;;6.35;3.67;;;19.30;99.90;;;;;;5052118;28;20045;-28
2022/08/09 07:54:37;;;;;;;4.03;2.20;;;19.40;26.30;;;;;;5052591;28;20057;-28
2022/08/09 07:57:03;;;;;;;3.28;1.30;;;19.60;1.00;;;;;;5054256;28;20045;-28
2022/08/09 07:59:29;;;;;;;4.80;1.90;;;19.70;1.00;;;;;;5053819;28;20490;-28
2022/08/09 08:01:55;;;;;;;2.95;1.20;;;19.90;99.90;;;;;;5053462;28;20052;-28
2022/08/09 08:04:22;;;;;;;2.72;1.20;;;19.90;99.90;;;;;;5054153;28;20033;-28
2022/08/09 08:06:47;;;;;;;4.85;1.55;;;19.90;99.90;;;;;;5054135;28;20060;-29
2022/08/09 08:09:13;;;;;;;3.03;1.40;;;20.10;99.90;;;;;;5052392;28;20395;-29
2022/08/09 08:11:39;;;;;;;2.60;1.27;;;20.10;26.20;;;;;;5054008;28;20064;-28
2022/08/09 08:14:05;;;;;;;3.65;1.30;;;20.20;15.90;;;;;;5053904;28;20037;-28
2022/08/09 08:16:31;;;;;;;5.03;1.58;;;20.30;85.10;;;;;;5051706;28;20515;-28
2022/08/09 08:18:56;;;;;;;6.05;1.55;;;20.50;5.50;;;;;;5052844;28;20049;-28
2022/08/09 08:21:23;;;;;;;3.20;1.23;;;20.60;14.40;;;;;;5053747;28;20047;-28
2022/08/09 08:23:49;;;;;;;3.10;1.08;;;20.80;1.00;;;;;;5052639;28;20037;-29
2022/08/09 08:26:15;;;;;;;5.10;1.35;;;21.00;1.00;;;;;;5042369;28;20045;-28
2022/08/09 08:28:41;;;;;;;2.97;1.30;;;21.00;99.90;;;;;;5049134;28;20049;-28
2022/08/09 08:31:06;;;;;;;3.83;1.38;;;21.00;99.90;;;;;;5034855;28;20056;-29
2022/08/09 08:33:32;;;;;;;2.63;1.42;;;20.90;99.90;;;;;;5040834;28;20044;-28
2022/08/09 08:35:58;;;;;;;4.75;1.60;;;20.90;99.90;;;;;;5049542;28;20053;-28
2022/08/09 08:38:24;;;;;;;4.50;1.30;;;20.90;99.90;;;;;;5052639;28;20049;-29
2022/08/09 08:40:51;;;;;;;4.88;1.15;;;20.90;99.90;;;;;;5053530;28;20040;-29
2022/08/09 08:43:17;;;;;;;4.32;1.05;;;21.00;99.90;;;;;;5053835;28;20403;-28
2022/08/09 08:45:52;;;;;;;2.85;0.82;;;21.10;99.90;;;;;;5053549;28;20045;-28
2022/08/09 08:48:18;;;;;;;3.83;0.85;;;21.40;99.90;;;;;;5051278;28;20041;-28
2022/08/09 08:50:46;;;;;;;2.40;0.90;;;21.70;99.90;;;;;;5054113;28;20049;-28
2022/08/09 08:53:13;;;;;;;2.35;0.60;;;21.90;1.00;;;;;;5053432;28;20418;-28
2022/08/09 08:55:40;;;;;;;2.10;0.60;;;22.10;1.00;;;;;;5052752;28;20052;-28
2022/08/09 08:58:06;;;;;;;2.50;0.60;;;22.00;1.00;;;;;;5037945;28;20107;-29
2022/08/09 09:00:32;;;;;;;2.15;0.70;;;22.00;1.00;;;;;;5057558;28;20136;-28
2022/08/09 09:02:59;;;;;;;5.57;0.75;;;22.00;1.00;;;;;;5057548;28;20076;-28
2022/08/09 09:05:26;;;;;;;1.85;0.43;;;21.90;1.00;;;;;;5056321;28;20048;-30
2022/08/09 09:07:53;;;;;;;1.80;0.60;;;22.00;1.00;;;;;;5057425;28;20045;-28
2022/08/09 09:10:20;;;;;;;2.22;0.90;;;22.30;1.00;;;;;;5055291;28;20126;-28
2022/08/09 09:12:48;;;;;;;3.90;1.35;;;22.70;1.00;;;;;;5057266;28;20051;-28
2022/08/09 09:15:14;;;;;;;2.78;0.52;;;22.90;99.90;;;;;;5055845;28;20044;-29
2022/08/09 09:17:39;;;;;;;2.20;0.73;;;23.60;99.90;;;;;;5056404;28;20060;-29
2022/08/09 09:20:10;;;;;;;1.83;0.80;;;24.50;99.90;;;;;;5056292;28;20465;-30
2022/08/09 09:22:54;;;;;;;3.10;0.73;;;25.30;67.10;;;;;;5057235;28;20085;-29
2022/08/09 09:25:33;;;;;;;2.80;1.02;;;25.20;1.00;;;;;;5057241;28;20049;-28
2022/08/09 09:28:00;;;;;;;5.38;0.60;;;24.50;1.00;;;;;;5057408;28;20056;-29
2022/08/09 09:30:26;;;;;;;4.13;0.90;;;23.80;80.80;;;;;;5055078;28;20509;-28
2022/08/09 09:33:09;;;;;;;0.95;0.60;;;23.40;99.90;;;;;;5054446;28;20109;-29
2022/08/09 09:35:53;;;;;;;1.75;0.70;;;23.20;99.90;;;;;;5056985;28;20044;-28
2022/08/09 09:38:21;;;;;;;1.20;0.63;;;23.20;99.90;;;;;;5056837;28;20127;-29
2022/08/09 09:40:47;;;;;;;2.30;0.35;;;23.60;99.90;;;;;;5054839;28;20502;-29
2022/08/09 09:43:19;;;;;;;2.35;0.55;;;24.50;84.60;;;;;;5039254;28;20071;-29
2022/08/09 09:45:52;;;;;;;1.08;0.80;;;24.60;1.00;;;;;;5054996;28;20113;-29
2022/08/09 09:48:20;;;;;;;1.52;0.50;;;25.10;1.00;;;;;;5073144;28;20068;-29
2022/08/09 09:50:49;;;;;;;1.48;0.30;;;25.90;1.00;;;;;;5056393;28;20502;-29
2022/08/09 09:53:21;;;;;;;1.17;0.35;;;26.70;1.00;;;;;;5056564;28;20041;-29
2022/08/09 09:56:00;;;;;;;1.60;0.50;;;27.50;99.90;;;;;;5059529;28;20056;-29
2022/08/09 09:58:46;;;;;;;2.38;0.47;;;27.50;99.90;;;;;;5076223;28;20090;-29
2022/08/09 10:01:20;;;;;;;0.95;0.22;;;27.70;99.90;;;;;;5055806;28;20049;-28
2022/08/09 10:03:48;;;;;;;1.13;0.20;;;28.30;99.90;;;;;;5054687;28;20075;-29
2022/08/09 10:06:15;;;;;;;1.08;0.20;;;28.70;99.90;;;;;;5055272;28;20502;-29
2022/08/09 10:08:43;;;;;;;3.42;0.40;;;29.20;99.90;;;;;;5055055;28;20053;-29
2022/08/09 10:11:15;;;;;;;1.55;0.38;;;29.40;99.90;;;;;;5055191;28;20121;-29
2022/08/09 10:13:41;;;;;;;1.48;0.35;;;29.70;99.90;;;;;;5056457;28;20044;-29
2022/08/09 10:16:07;;;;;;;1.35;0.43;;;29.70;99.90;;;;;;5055213;28;20073;-28
2022/08/09 10:18:33;;;;;;;1.02;0.60;;;29.60;99.90;;;;;;5054260;28;20468;-29
2022/08/09 10:21:08;;;;;;;1.17;0.20;;;29.60;99.90;;;;;;5054248;28;20049;-29
2022/08/09 10:23:36;;;;;;;1.17;0.43;;;29.50;99.90;;;;;;5056877;28;20388;-29
2022/08/09 10:26:02;;;;;;;1.88;0.40;;;29.40;99.90;;;;;;5054306;28;20057;-28
2022/08/09 10:28:33;;;;;;;3.47;0.38;;;29.00;99.90;;;;;;5056564;28;20053;-29
2022/08/09 10:30:59;;;;;;;1.15;0.45;;;28.90;99.90;;;;;;5052864;28;20056;-29
2022/08/09 10:33:25;;;;;;;1.52;0.43;;;29.20;99.90;;;;;;5055009;28;20127;-29
2022/08/09 10:35:51;;;;;;;1.83;0.50;;;29.30;99.90;;;;;;5055008;28;20049;-29
2022/08/09 10:38:18;;;;;;;1.77;0.70;;;29.50;99.90;;;;;;5056381;28;20045;-29
2022/08/09 10:40:44;;;;;;;0.47;0.25;;;29.70;99.90;;;;;;5054610;28;20041;-29
2022/08/09 10:43:11;;;;;;;0.98;0.20;;;29.90;99.90;;;;;;5070166;28;20076;-29
2022/08/09 10:45:39;;;;;;;2.03;0.30;;;30.00;99.90;;;;;;5054532;28;20049;-29
2022/08/09 10:48:13;;;;;;;0.55;0.20;;;30.10;99.90;;;;;;5056155;28;20052;-30
2022/08/09 10:53:26;;;;;;;1.02;0.32;;;30.80;99.90;;;;;;5054717;28;20510;-29
2022/08/09 10:56:15;;;;;;;0.50;0.20;;;30.80;99.90;;;;;;5042772;28;20084;-29
2022/08/09 10:58:41;;;;;;;1.20;0.35;;;30.20;99.90;;;;;;5036073;28;20095;-29
2022/08/09 11:01:32;;;;;;;0.52;0.13;;;30.00;99.90;;;;;;5061513;28;20049;-29
2022/08/09 11:04:12;;;;;;;1.03;0.43;;;29.30;99.90;;;;;;5075261;28;20090;-29
2022/08/09 11:06:40;;;;;;;1.05;0.10;;;29.00;99.90;;;;;;5057811;28;20048;-29
2022/08/09 11:09:07;;;;;;;1.90;0.20;;;29.10;99.90;;;;;;5055159;28;20056;-29
2022/08/09 11:11:56;;;;;;;0.98;0.10;;;29.20;99.90;;;;;;5054105;28;20099;-28
2022/08/09 11:14:55;;;;;;;0.20;0.10;;;29.70;99.90;;;;;;5055034;28;20487;-30
2022/08/09 11:17:21;;;;;;;1.25;0.38;;;30.00;99.90;;;;;;5067305;28;20061;-28
2022/08/09 11:20:06;;;;;;;1.10;0.10;;;29.90;99.90;;;;;;5069874;28;20053;-29
2022/08/09 11:22:43;;;;;;;3.00;0.40;;;30.00;99.90;;;;;;5051971;28;20044;-29
2022/08/09 11:25:11;;;;;;;0.82;0.25;;;29.70;99.90;;;;;;5054781;28;20490;-29
2022/08/09 11:27:42;;;;;;;3.45;0.15;;;29.70;99.90;;;;;;5070107;28;20045;-29
2022/08/09 11:30:21;;;;;;;0.47;0.10;;;29.00;99.90;;;;;;5074391;28;20055;-29
2022/08/09 11:33:01;;;;;;;0.30;0.10;;;29.10;99.90;;;;;;5057513;28;20417;-29
2022/08/09 11:35:44;;;;;;;0.38;0.10;;;29.20;99.90;;;;;;5065106;28;20040;-30
2022/08/09 11:38:15;;;;;;;;;;;29.40;99.90;;;;;;5068255;28;20118;-29
2022/08/09 11:40:41;;;;;;;0.47;0.07;;;29.00;99.90;;;;;;5052981;28;20011;-29
2022/08/09 11:43:07;;;;;;;1.50;0.15;;;29.10;99.90;;;;;;5069991;28;20072;-29
2022/08/09 11:45:45;;;;;;;1.10;0.30;;;29.40;99.90;;;;;;5053637;28;20049;-28
2022/08/09 11:48:10;;;;;;;0.95;0.30;;;29.50;99.90;;;;;;5053812;28;20106;-28
2022/08/09 11:50:57;;;;;;;2.60;0.20;;;29.20;99.20;;;;;;5053434;28;20052;-28
2022/08/09 11:53:27;;;;;;;1.38;0.38;;;29.00;89.40;;;;;;5054314;28;20045;-29
2022/08/09 11:56:19;;;;;;;0.70;0.25;;;29.00;96.50;;;;;;5054311;28;20132;-29
2022/08/09 11:58:48;;;;;;;0.32;0.20;;;29.00;91.00;;;;;;5051761;28;20099;-29
2022/08/09 12:01:17;;;;;;;1.08;0.20;;;29.10;94.60;;;;;;5051242;28;20053;-28
2022/08/09 12:03:45;;;;;;;1.05;1.00;;;29.20;93.40;;;;;;5054178;28;20052;-29
2022/08/09 12:06:14;;;;;;;1.10;0.52;;;29.00;83.10;;;;;;5051061;28;20099;-29
2022/08/09 12:08:49;;;;;;;0.35;0.15;;;29.00;56.00;;;;;;5051070;28;20045;-29
2022/08/09 12:11:16;;;;;;;2.03;0.20;;;28.90;86.10;;;;;;5034099;28;20498;-29
2022/08/09 12:13:45;;;;;;;1.00;0.20;;;28.60;78.70;;;;;;5034035;28;20547;-30
2022/08/09 12:16:18;;;;;;;2.78;0.20;;;28.70;78.90;;;;;;5032734;28;20069;-28
2022/08/09 12:18:51;;;;;;;1.65;0.28;;;29.00;94.70;;;;;;5033137;28;20049;-29
2022/08/09 12:21:26;;;;;;;0.85;0.20;;;29.20;95.40;;;;;;5049441;28;20052;-29
2022/08/09 12:23:52;;;;;;;0.50;0.13;;;29.30;95.20;;;;;;5033950;28;20514;-29
2022/08/09 12:26:19;;;;;;;1.85;0.38;;;29.00;88.80;;;;;;5033873;28;20176;-28
2022/08/09 12:28:50;;;;;;;0.50;0.30;;;29.30;78.30;;;;;;5033848;28;20052;-29
2022/08/09 12:31:28;;;;;;;0.80;0.20;;;29.50;75.90;;;;;;5051287;28;20430;-29
2022/08/09 12:33:55;;;;;;;1.45;0.32;;;29.50;82.50;;;;;;5052852;28;20395;-30
2022/08/09 12:36:22;;;;;;;0.55;0.20;;;29.70;89.60;;;;;;5069635;28;20116;-29
2022/08/09 12:38:53;;;;;;;1.38;0.13;;;29.50;70.70;;;;;;5052548;28;20064;-29
2022/08/09 12:41:30;;;;;;;1.08;0.10;;;29.30;52.70;;;;;;5052836;28;20119;-29
2022/08/09 12:43:57;;;;;;;2.08;0.20;;;29.60;54.20;;;;;;5053648;28;20044;-29
2022/08/09 12:46:24;;;;;;;0.75;0.20;;;29.10;39.00;;;;;;5054108;28;20053;-29
2022/08/09 12:48:53;;;;;;;0.30;0.10;;;29.30;56.10;;;;;;5051795;28;20110;-29
2022/08/09 12:51:21;;;;;;;1.23;0.20;;;29.50;68.30;;;;;;5035285;28;20072;-29
2022/08/09 12:53:58;;;;;;;1.63;0.43;;;29.40;56.40;;;;;;5053353;28;20438;-27
2022/08/09 12:56:24;;;;;;;2.00;0.30;;;29.20;47.30;;;;;;5054106;28;20463;-28
2022/08/09 12:59:10;;;;;;;3.40;0.17;;;29.00;50.40;;;;;;5051333;28;20045;-27